Johnstone Strait: Past 24 Hour Conditions

 

La Perouse Bank - 46206

12:00 AM PDT 22 October 2017Buoy position: 48.83N 126.0W
Disclaimer

This table is a summary of hourly weather conditions for the past 24 hours.
Please note that these observations might not always be representative of weather conditions over their associated marine area.

Date / Time
(PDT)
Wind(knots) Wave height(m) Wave period(s) Pressure(kPa) Air tempC) Water tempC)
22 October 2017
0:00 SW 16 gust 19 3.5 10.0 100.1 12 10
21 October 2017
23:00 SSW 14 gust 18 3.2 10.0 100.0 12 10
22:00 SSW 10 gust 12 3.5 9.0 100.0 12 10
21:00 SW 12 gust 16 3.4 10.0 99.9 12 10
20:00 SW 10 gust 12 3.5 11.0 99.8 12 10
19:00 W 21 gust 27 3.5 10.0 99.7 12 10
18:00 SW 23 gust 29 3.5 10.0 99.5 13 10
17:00 SE 16 gust 21 3.3 10.0 99.6 11 10
16:00 SE 14 gust 16 3.1 9.0 99.7 11 10
15:00 SSE 12 gust 16 3.2 9.0 99.8 11 10
14:00 SSE 16 gust 19 3.4 9.0 99.9 12 10
13:00 SSE 12 gust 14 3.5 8.0 100.0 11 10
12:00 ESE 14 gust 16 3.2 8.0 100.1 11 10
11:00 E 21 gust 29 3.7 8.0 100.0 9 10
10:00 E 19 gust 27 3.2 8.0 100.1 9 10
9:00 E 21 gust 29 3.1 7.0 100.1 8 10
8:00 E 25 gust 31 2.9 7.0 100.1 8 10
7:00 E 27 gust 33 3.2 13.0 100.1 8 10
6:00 E 27 gust 37 3.3 14.0 100.2 9 10
5:00 E 27 gust 35 3.1 13.0 100.3 9 10
4:00 ESE 25 gust 33 3.1 14.0 100.4 9 10
3:00 ESE 23 gust 31 3.5 14.0 100.6 10 10
2:00 SE 21 gust 27 3.2 12.0 100.7 10 10
1:00 ESE 16 gust 23 3.6 12.0 100.7 10 10
0:00 ESE 18 gust 23 3.5 12.0 100.8 10 10

Zoom-in to make a selection

Map of Pacific - Georgia Basin marine weather areas Tsawwassen Ferry Terminal Sentry Shoal - 46131 Halibut Bank - 46146 La Perouse Bank - 46206 Discovery Island Esquimalt Harbour Kelp Reefs Malahat Race Rocks Lightstation Saturna Island Sheringham Point University of Victoria Victoria Gonzales Victoria Int'l Airport Ballenas Islands Campbell River Airport Comox Airport Entrance Island Fanny Island Nanaimo Airport Sisters Islets Estevan Point Tofino Airport Grief Point Powell River Airport Sechelt Point Atkinson Sand Heads Lightstation Vancouver Harbour Vancouver Int'l Airport West Vancouver Port Alberni Howe Sound - Pam Rocks Squamish Airport
Legend:
buoy Buoy
land station Land Station

Pacific - Georgia Basin Area

Another Region

What we are doing

Features

Summer 2017: Significant weather across Canada

By analyzing weather events, ECCC is collecting more information as to how our climate is changing.

Date modified: